createdAt,value
2022-10-01T00:02:17.064Z,100648.22
2022-10-01T00:04:44.942Z,100652.28
2022-10-01T00:07:15.224Z,100643.88
2022-10-01T00:09:43.204Z,100642.19
2022-10-01T00:12:11.062Z,100644.75
2022-10-01T00:14:40.323Z,100634.34
2022-10-01T00:17:08.216Z,100627.50
2022-10-01T00:19:36.038Z,100639.03
2022-10-01T00:22:04.005Z,100629.38
2022-10-01T00:24:36.545Z,100639.81
2022-10-01T00:27:04.732Z,100638.69
2022-10-01T00:29:32.619Z,100642.94
2022-10-01T00:32:02.283Z,100631.84
2022-10-01T00:34:30.178Z,100646.19
2022-10-01T00:36:58.150Z,100637.34
2022-10-01T00:39:26.088Z,100632.41
2022-10-01T00:41:54.651Z,100624.44
2022-10-01T00:44:34.122Z,100623.22
2022-10-01T00:47:22.289Z,100617.50
2022-10-01T00:49:59.206Z,100611.34
2022-10-01T00:52:32.769Z,100614.16
2022-10-01T00:55:08.797Z,100610.56
2022-10-01T00:57:36.717Z,100618.50
2022-10-01T01:00:10.853Z,100609.44
2022-10-01T01:02:40.233Z,100614.91
2022-10-01T01:05:13.498Z,100605.19
2022-10-01T01:07:46.815Z,100608.97
2022-10-01T01:10:20.242Z,100610.44
2022-10-01T01:13:12.151Z,100603.69
2022-10-01T01:15:49.948Z,100607.28
2022-10-01T01:18:29.917Z,100604.59
2022-10-01T01:21:17.004Z,100599.00
2022-10-01T01:24:40.295Z,100596.66
2022-10-01T01:27:31.282Z,100594.75
2022-10-01T01:30:06.598Z,100585.53
2022-10-01T01:32:47.747Z,100589.13
2022-10-01T01:35:28.050Z,100583.44
2022-10-01T01:38:03.160Z,100558.19
2022-10-01T01:40:37.483Z,100580.97
2022-10-01T01:43:11.947Z,100574.22
2022-10-01T01:45:43.242Z,100571.88
2022-10-01T01:48:12.945Z,100570.09
2022-10-01T01:50:48.999Z,100558.31
2022-10-01T01:53:16.895Z,100565.69
2022-10-01T01:55:49.170Z,100535.78
2022-10-01T01:58:18.648Z,100555.97
2022-10-01T02:00:53.355Z,100564.38
2022-10-01T02:03:23.433Z,100556.16
2022-10-01T02:06:10.341Z,100562.81
2022-10-01T02:08:42.610Z,100570.75
2022-10-01T02:11:24.938Z,100568.16
2022-10-01T02:14:09.155Z,100561.09
2022-10-01T02:16:49.957Z,100562.13
2022-10-01T02:19:29.703Z,100567.50
2022-10-01T02:22:01.189Z,100568.28
2022-10-01T02:24:39.430Z,100566.69
2022-10-01T02:27:14.674Z,100556.28
2022-10-01T02:29:46.248Z,100551.91
2022-10-01T02:32:19.288Z,100568.94
2022-10-01T02:34:51.970Z,100565.47
2022-10-01T02:37:25.521Z,100556.38
2022-10-01T02:39:57.347Z,100562.22
2022-10-01T02:42:31.863Z,100567.69
2022-10-01T02:45:04.491Z,100547.88
2022-10-01T02:47:43.609Z,100553.25
2022-10-01T02:50:14.056Z,100549.78
2022-10-01T02:52:48.377Z,100547.31
2022-10-01T02:55:21.622Z,100547.44
2022-10-01T02:57:48.516Z,100536.09
2022-10-01T03:00:21.225Z,100540.16
2022-10-01T03:02:51.446Z,100538.47
2022-10-01T03:05:20.398Z,100539.38
2022-10-01T03:07:49.716Z,100538.91
2022-10-01T03:10:18.082Z,100524.25
2022-10-01T03:12:46.831Z,100530.53
2022-10-01T03:15:19.207Z,100533.88
2022-10-01T03:17:47.538Z,100523.25
2022-10-01T03:20:16.850Z,100524.91
2022-10-01T03:22:46.922Z,100514.63
2022-10-01T03:25:15.629Z,100512.34
2022-10-01T03:27:43.569Z,100511.25
2022-10-01T03:30:12.621Z,100510.91
2022-10-01T03:32:40.700Z,100498.47
2022-10-01T03:35:09.910Z,100501.94
2022-10-01T03:37:39.081Z,100501.59
2022-10-01T03:40:08.576Z,100495.56
2022-10-01T03:42:36.350Z,100481.69
2022-10-01T03:45:04.635Z,100484.47
2022-10-01T03:47:32.388Z,100480.88
2022-10-01T03:50:00.198Z,100480.66
2022-10-01T03:52:28.044Z,100445.06
2022-10-01T03:54:57.157Z,100484.91
2022-10-01T03:57:25.075Z,100483.69
2022-10-01T03:59:52.807Z,100483.25
2022-10-01T04:02:21.475Z,100478.88
2022-10-01T04:04:49.338Z,100473.59
2022-10-01T04:07:17.306Z,100480.66
2022-10-01T04:09:45.062Z,100478.88
2022-10-01T04:12:14.270Z,100379.25
2022-10-01T04:14:42.043Z,100475.28
2022-10-01T04:17:09.840Z,100469.91
2022-10-01T04:19:37.697Z,100458.69
2022-10-01T04:22:05.544Z,100461.16
2022-10-01T04:24:33.376Z,100457.59
2022-10-01T04:27:01.166Z,100453.88
2022-10-01T04:29:30.340Z,100430.81
2022-10-01T04:31:58.207Z,100452.44
2022-10-01T04:34:46.414Z,100452.75
2022-10-01T04:37:14.193Z,100443.13
2022-10-01T04:39:42.012Z,100442.78
2022-10-01T04:42:09.794Z,100444.94
2022-10-01T04:44:39.002Z,100447.06
2022-10-01T04:47:08.318Z,100443.00
2022-10-01T04:49:36.993Z,100435.06
2022-10-01T04:52:06.045Z,100447.63
2022-10-01T04:54:33.848Z,100441.78
2022-10-01T04:57:01.742Z,100439.75
2022-10-01T04:59:29.520Z,100440.06
2022-10-01T05:01:58.718Z,100442.34
2022-10-01T05:04:27.279Z,100435.38
2022-10-01T05:06:55.080Z,100434.81
2022-10-01T05:09:22.867Z,100432.34
2022-10-01T05:11:52.045Z,100426.41
2022-10-01T05:14:21.233Z,100422.28
2022-10-01T05:16:49.141Z,100423.25
2022-10-01T05:19:18.341Z,100404.53
2022-10-01T05:21:46.201Z,100409.59
2022-10-01T05:24:14.204Z,100417.19
2022-10-01T05:26:42.009Z,100418.41
2022-10-01T05:29:10.068Z,100415.28
2022-10-01T05:31:38.519Z,100416.53
2022-10-01T05:34:06.577Z,100422.34
2022-10-01T05:36:35.721Z,100405.41
2022-10-01T05:39:03.697Z,100394.66
2022-10-01T05:41:32.551Z,100408.75
2022-10-01T05:44:00.654Z,100396.19
2022-10-01T05:46:28.481Z,100398.28
2022-10-01T05:48:56.242Z,100391.78
2022-10-01T05:51:24.215Z,100382.25
2022-10-01T05:53:55.338Z,100389.53
2022-10-01T05:56:24.212Z,100375.97
2022-10-01T05:58:52.071Z,100373.03
2022-10-01T06:01:19.848Z,100366.47
2022-10-01T06:03:51.307Z,100348.16
2022-10-01T06:06:23.251Z,100347.56
2022-10-01T06:08:53.100Z,100346.78
2022-10-01T06:11:22.522Z,100343.75
2022-10-01T06:13:51.251Z,100329.50
2022-10-01T06:16:20.776Z,100332.72
2022-10-01T06:18:57.066Z,100334.09
2022-10-01T06:21:25.662Z,100328.19
2022-10-01T06:23:55.722Z,100327.50
2022-10-01T06:26:24.344Z,100331.94
2022-10-01T06:28:52.773Z,100312.81
2022-10-01T06:31:21.330Z,100325.84
2022-10-01T06:33:49.204Z,100295.78
2022-10-01T06:36:17.051Z,100304.81
2022-10-01T06:38:45.003Z,100310.56
2022-10-01T06:41:14.372Z,100313.69
2022-10-01T06:43:42.219Z,100305.88
2022-10-01T06:46:10.621Z,100300.94
2022-10-01T06:48:38.627Z,100283.06
2022-10-01T06:51:07.001Z,100285.69
2022-10-01T06:53:34.840Z,100292.72
2022-10-01T06:56:07.573Z,100283.09
2022-10-01T06:58:37.346Z,100285.69
2022-10-01T07:01:05.031Z,100285.47
2022-10-01T07:03:33.290Z,100281.38
2022-10-01T07:06:07.992Z,100276.13
2022-10-01T07:08:35.854Z,100282.31
2022-10-01T07:11:05.023Z,100269.81
2022-10-01T07:13:33.290Z,100274.81
2022-10-01T07:16:04.792Z,100271.09
2022-10-01T07:18:32.735Z,100268.06
2022-10-01T07:21:01.572Z,100250.03
2022-10-01T07:23:29.417Z,100245.16
2022-10-01T07:25:57.243Z,100243.34
2022-10-01T07:28:26.219Z,100239.59
2022-10-01T07:31:07.142Z,100228.72
2022-10-01T07:33:35.288Z,100221.72
2022-10-01T07:36:05.356Z,100223.97
2022-10-01T07:38:34.400Z,100226.72
2022-10-01T07:41:04.555Z,100221.88
2022-10-01T07:43:34.568Z,100220.00
2022-10-01T07:46:05.094Z,100224.03
2022-10-01T07:48:33.152Z,100206.66
2022-10-01T07:51:01.097Z,100218.91
2022-10-01T07:53:29.038Z,100193.59
2022-10-01T07:55:57.934Z,100204.50
2022-10-01T07:58:26.528Z,100195.69
2022-10-01T08:00:58.377Z,100187.72
2022-10-01T08:03:27.923Z,100180.69
2022-10-01T08:05:56.737Z,100176.94
2022-10-01T08:08:24.538Z,100186.56
2022-10-01T08:10:52.891Z,100171.91
2022-10-01T08:13:24.746Z,100173.69
2022-10-01T08:15:54.903Z,100172.50
2022-10-01T08:18:24.444Z,100168.25
2022-10-01T08:20:53.669Z,100171.13
2022-10-01T08:23:22.182Z,100155.13
2022-10-01T08:25:50.085Z,100158.22
2022-10-01T08:28:18.325Z,100154.47
2022-10-01T08:30:46.211Z,100141.00
2022-10-01T08:33:14.907Z,100158.25
2022-10-01T08:35:44.467Z,100143.47
2022-10-01T08:38:14.199Z,100149.00
2022-10-01T08:40:50.926Z,100141.53
2022-10-01T08:43:36.406Z,100130.91
2022-10-01T08:46:11.966Z,100142.22
2022-10-01T08:48:57.560Z,100136.59
2022-10-01T08:51:34.005Z,100133.13
2022-10-01T08:54:22.133Z,100124.25
2022-10-01T08:56:50.141Z,100118.06
2022-10-01T08:59:39.023Z,100121.19
2022-10-01T09:02:22.353Z,100123.59
2022-10-01T09:05:00.340Z,100113.59
2022-10-01T09:07:52.706Z,100104.63
2022-10-01T09:10:42.204Z,100099.28
2022-10-01T09:13:32.588Z,100089.44
2022-10-01T09:16:12.818Z,100081.78
2022-10-01T09:18:56.832Z,100079.16
2022-10-01T09:21:44.543Z,100058.72
2022-10-01T09:24:16.682Z,100064.91
2022-10-01T09:26:49.756Z,100055.53
2022-10-01T09:29:28.418Z,100048.25
2022-10-01T09:31:58.270Z,100056.28
2022-10-01T09:34:34.992Z,100061.97
2022-10-01T09:37:14.924Z,100063.16
2022-10-01T09:39:55.668Z,100063.91
2022-10-01T09:42:30.600Z,100064.63
2022-10-01T09:44:59.261Z,100047.28
2022-10-01T09:47:28.110Z,100049.38
2022-10-01T09:49:57.028Z,100051.22
2022-10-01T09:52:34.621Z,100051.59
2022-10-01T09:55:13.761Z,100049.09
2022-10-01T09:57:51.598Z,100046.69
2022-10-01T10:00:25.496Z,100054.44
2022-10-01T10:02:56.734Z,100039.28
2022-10-01T10:05:28.259Z,100048.19
2022-10-01T10:07:59.977Z,100052.63
2022-10-01T10:10:35.406Z,100055.78
2022-10-01T10:13:21.519Z,100045.59
2022-10-01T10:15:54.147Z,100049.41
2022-10-01T10:18:34.605Z,100061.66
2022-10-01T10:21:07.971Z,100071.97
2022-10-01T10:23:36.034Z,100070.28
2022-10-01T10:26:07.515Z,100069.38
2022-10-01T10:28:44.652Z,100066.38
2022-10-01T10:31:18.155Z,100080.94
2022-10-01T10:33:54.385Z,100079.69
2022-10-01T10:36:29.404Z,100083.88
2022-10-01T10:38:59.916Z,100082.00
2022-10-01T10:41:30.451Z,100084.69
2022-10-01T10:44:04.849Z,100063.06
2022-10-01T10:46:36.663Z,100081.56
2022-10-01T10:49:20.350Z,100079.66
2022-10-01T10:51:51.321Z,100081.31
2022-10-01T10:54:23.178Z,100093.28
2022-10-01T10:57:00.637Z,100045.50
2022-10-01T10:59:32.781Z,100077.69
2022-10-01T11:02:05.469Z,100092.47
2022-10-01T11:04:43.727Z,100085.53
2022-10-01T11:07:21.637Z,100092.19
2022-10-01T11:10:17.234Z,100076.19
2022-10-01T11:13:06.817Z,100041.31
2022-10-01T11:16:02.801Z,100069.28
2022-10-01T11:18:58.430Z,100078.88
2022-10-01T11:21:51.620Z,100077.72
2022-10-01T11:24:46.054Z,100055.41
2022-10-01T11:27:26.388Z,100063.75
2022-10-01T11:30:06.225Z,100057.19
2022-10-01T11:32:40.047Z,100059.34
2022-10-01T11:35:28.436Z,100044.19
2022-10-01T11:38:30.847Z,100052.44
2022-10-01T11:41:09.592Z,100015.44
2022-10-01T11:43:44.263Z,100033.50
2022-10-01T11:46:19.971Z,100057.84
2022-10-01T11:48:57.249Z,100045.13
2022-10-01T11:51:33.112Z,100032.16
2022-10-01T11:54:10.116Z,100040.16
2022-10-01T11:57:04.759Z,100036.34
2022-10-01T11:59:41.748Z,100041.53
2022-10-01T12:02:22.580Z,100043.38
2022-10-01T12:04:59.339Z,100028.69
2022-10-01T12:07:38.280Z,100043.56
2022-10-01T12:10:29.358Z,100043.56
2022-10-01T12:13:07.338Z,100029.13
2022-10-01T12:15:46.083Z,100041.31
2022-10-01T12:18:21.850Z,100043.13
2022-10-01T12:20:55.650Z,100039.75
2022-10-01T12:23:29.962Z,100031.88
2022-10-01T12:26:17.377Z,100051.16
2022-10-01T12:29:00.545Z,100040.69
2022-10-01T12:31:37.114Z,100044.00
2022-10-01T12:34:22.423Z,100051.69
2022-10-01T12:37:12.792Z,100044.06
2022-10-01T12:39:59.058Z,100046.22
2022-10-01T12:42:53.163Z,100022.72
2022-10-01T12:45:39.906Z,100045.31
2022-10-01T12:48:21.232Z,100048.94
2022-10-01T12:51:03.111Z,100054.72
2022-10-01T12:53:46.206Z,100050.53
2022-10-01T12:56:27.612Z,100048.50
2022-10-01T12:59:28.467Z,100049.03
2022-10-01T13:02:22.660Z,100052.50
2022-10-01T13:05:11.135Z,100046.47
2022-10-01T13:07:58.872Z,100045.78
2022-10-01T13:10:53.762Z,100048.34
2022-10-01T13:13:27.045Z,100052.69
2022-10-01T13:16:06.289Z,100051.53
2022-10-01T13:18:51.690Z,100050.78
2022-10-01T13:21:36.083Z,100055.06
2022-10-01T13:24:14.898Z,100049.81
2022-10-01T13:26:55.947Z,100050.69
2022-10-01T13:29:42.887Z,100051.34
2022-10-01T13:32:28.930Z,100037.66
2022-10-01T13:34:58.818Z,100050.19
2022-10-01T13:37:36.035Z,100047.63
2022-10-01T13:40:06.940Z,100047.06
2022-10-01T13:42:46.883Z,100025.44
2022-10-01T13:45:28.292Z,100039.50
2022-10-01T13:48:09.206Z,100041.75
2022-10-01T13:50:39.759Z,100035.59
2022-10-01T13:53:17.165Z,100031.75
2022-10-01T13:55:48.812Z,100024.28
2022-10-01T13:58:33.390Z,100022.88
2022-10-01T14:01:05.440Z,100025.50
2022-10-01T14:03:49.463Z,100020.81
2022-10-01T14:06:25.610Z,100033.69
2022-10-01T14:09:01.401Z,100029.41
2022-10-01T14:11:52.958Z,100034.81
2022-10-01T14:14:50.269Z,100029.69
2022-10-01T14:17:22.833Z,100028.38
2022-10-01T14:19:51.802Z,100021.25
2022-10-01T14:22:44.375Z,100023.75
2022-10-01T14:25:30.737Z,100025.72
2022-10-01T14:28:23.070Z,100031.44
2022-10-01T14:31:03.622Z,100037.22
2022-10-01T14:34:09.567Z,100036.09
2022-10-01T14:36:44.308Z,100026.53
2022-10-01T14:39:18.801Z,100021.03
2022-10-01T14:41:49.578Z,100012.09
2022-10-01T14:44:28.205Z,100021.50
2022-10-01T14:47:00.467Z,100032.25
2022-10-01T14:49:31.129Z,100026.00
2022-10-01T14:52:04.301Z,100038.16
2022-10-01T14:54:43.998Z,100033.09
2022-10-01T14:57:19.318Z,100033.81
2022-10-01T14:59:50.147Z,100048.56
2022-10-01T15:02:23.026Z,100034.94
2022-10-01T15:04:53.605Z,100043.97
2022-10-01T15:07:21.839Z,100037.03
2022-10-01T15:09:51.160Z,100043.59
2022-10-01T15:12:23.597Z,100031.97
2022-10-01T15:14:55.488Z,100041.69
2022-10-01T15:17:28.205Z,100049.91
2022-10-01T15:19:58.667Z,100049.22
2022-10-01T15:22:31.063Z,100048.03
2022-10-01T15:25:02.582Z,100031.22
2022-10-01T15:27:30.897Z,100052.63
2022-10-01T15:30:00.286Z,100046.09
2022-10-01T15:32:30.270Z,100045.38
2022-10-01T15:35:01.117Z,100050.41
2022-10-01T15:37:34.324Z,100037.88
2022-10-01T15:40:04.898Z,100046.13
2022-10-01T15:42:35.761Z,100051.97
2022-10-01T15:45:27.876Z,100053.22
2022-10-01T15:47:58.065Z,100046.31
2022-10-01T15:50:29.009Z,100039.69
2022-10-01T15:53:03.837Z,100042.78
2022-10-01T15:55:43.752Z,100037.69
2022-10-01T15:58:18.580Z,100036.50
2022-10-01T16:01:00.958Z,100043.44
2022-10-01T16:03:34.693Z,100041.06
2022-10-01T16:06:05.291Z,100041.38
2022-10-01T16:08:40.686Z,100037.38
2022-10-01T16:11:23.595Z,100051.31
2022-10-01T16:13:54.797Z,100039.97
2022-10-01T16:16:28.922Z,100053.13
2022-10-01T16:19:24.691Z,100058.94
2022-10-01T16:22:15.668Z,100067.72
2022-10-01T16:24:46.717Z,100063.44
2022-10-01T16:27:19.093Z,100076.56
2022-10-01T16:30:04.188Z,100081.97
2022-10-01T16:32:33.113Z,100084.63
2022-10-01T16:35:23.181Z,100079.88
2022-10-01T16:37:53.439Z,100086.53
2022-10-01T16:40:25.386Z,100091.94
2022-10-01T16:42:54.193Z,100093.81
2022-10-01T16:45:25.202Z,100091.06
2022-10-01T16:47:54.452Z,100089.44
2022-10-01T16:50:25.055Z,100098.06
2022-10-01T16:52:54.126Z,100097.59
2022-10-01T16:55:26.568Z,100104.53
2022-10-01T16:57:55.813Z,100104.13
2022-10-01T17:00:26.166Z,100099.09
2022-10-01T17:02:54.680Z,100110.66
2022-10-01T17:05:28.287Z,100100.97
2022-10-01T17:08:01.229Z,100108.41
2022-10-01T17:10:33.653Z,100097.19
2022-10-01T17:13:02.296Z,100108.56
2022-10-01T17:15:30.326Z,100110.06
2022-10-01T17:17:59.918Z,100101.06
2022-10-01T17:20:31.536Z,100108.09
2022-10-01T17:22:59.909Z,100112.03
2022-10-01T17:25:34.175Z,100095.06
2022-10-01T17:28:04.666Z,100112.47
2022-10-01T17:30:33.386Z,100108.19
2022-10-01T17:33:02.624Z,100111.03
2022-10-01T17:35:31.848Z,100114.09
2022-10-01T17:38:00.220Z,100093.44
2022-10-01T17:40:28.206Z,100120.69
2022-10-01T17:42:55.972Z,100115.31
2022-10-01T17:45:23.757Z,100122.28
2022-10-01T17:47:51.639Z,100118.34
2022-10-01T17:50:20.031Z,100099.31
2022-10-01T17:52:49.541Z,100126.09
2022-10-01T17:55:19.868Z,100135.78
2022-10-01T17:57:47.790Z,100134.16
2022-10-01T18:00:15.659Z,100154.72
2022-10-01T18:02:44.414Z,100150.38
2022-10-01T18:05:14.754Z,100164.91
2022-10-01T18:07:43.594Z,100171.84
2022-10-01T18:10:14.696Z,100187.03
2022-10-01T18:12:42.689Z,100179.41
2022-10-01T18:15:11.187Z,100174.53
2022-10-01T18:17:43.502Z,100188.09
2022-10-01T18:20:20.053Z,100194.00
2022-10-01T18:22:48.111Z,100202.56
2022-10-01T18:25:19.461Z,100174.59
2022-10-01T18:27:50.095Z,100199.72
2022-10-01T18:30:20.255Z,100216.50
2022-10-01T18:32:56.862Z,100211.78
2022-10-01T18:35:33.357Z,100202.66
2022-10-01T18:38:12.417Z,100216.00
2022-10-01T18:40:46.352Z,100225.88
2022-10-01T18:43:20.863Z,100221.25
2022-10-01T18:46:11.803Z,100236.38
2022-10-01T18:49:02.682Z,100230.25
2022-10-01T18:51:52.713Z,100238.69
2022-10-01T18:54:53.442Z,100237.53
2022-10-01T18:57:46.211Z,100253.38
2022-10-01T19:00:17.870Z,100247.44
2022-10-01T19:03:40.008Z,100261.81
2022-10-01T19:06:31.225Z,100271.97
2022-10-01T19:09:19.287Z,100272.88
2022-10-01T19:12:02.827Z,100240.66
2022-10-01T19:14:55.867Z,100283.91
2022-10-01T19:17:48.339Z,100285.03
2022-10-01T19:20:34.676Z,100286.25
2022-10-01T19:23:21.786Z,100299.50
2022-10-01T19:25:55.454Z,100300.81
2022-10-01T19:28:47.333Z,100299.06
2022-10-01T19:31:29.685Z,100318.72
2022-10-01T19:34:08.995Z,100299.69
2022-10-01T19:36:45.029Z,100301.38
2022-10-01T19:39:23.201Z,100310.13
2022-10-01T19:42:00.182Z,100324.81
2022-10-01T19:44:34.338Z,100319.81
2022-10-01T19:47:24.660Z,100321.34
2022-10-01T19:49:58.164Z,100333.13
2022-10-01T19:52:33.995Z,100325.13
2022-10-01T19:55:02.242Z,100328.00
2022-10-01T19:57:34.783Z,100330.66
2022-10-01T20:00:11.521Z,100336.34
2022-10-01T20:02:52.247Z,100342.63
2022-10-01T20:05:29.446Z,100345.13
2022-10-01T20:08:06.625Z,100342.59
2022-10-01T20:10:42.624Z,100360.78
2022-10-01T20:13:29.302Z,100356.75
2022-10-01T20:16:11.471Z,100366.13
2022-10-01T20:18:50.124Z,100370.72
2022-10-01T20:21:38.580Z,100373.66
2022-10-01T20:24:30.129Z,100385.88
2022-10-01T20:27:16.402Z,100387.38
2022-10-01T20:29:54.938Z,100390.44
2022-10-01T20:32:30.498Z,100395.69
2022-10-01T20:35:23.762Z,100403.03
2022-10-01T20:38:06.844Z,100405.94
2022-10-01T20:40:45.468Z,100398.78
2022-10-01T20:43:20.464Z,100413.56
2022-10-01T20:45:54.088Z,100423.81
2022-10-01T20:48:28.601Z,100424.31
2022-10-01T20:51:08.248Z,100425.41
2022-10-01T20:53:44.937Z,100439.63
2022-10-01T20:56:18.292Z,100432.19
2022-10-01T20:58:53.439Z,100437.38
2022-10-01T21:01:24.557Z,100420.75
2022-10-01T21:04:02.390Z,100436.00
2022-10-01T21:06:40.568Z,100438.81
2022-10-01T21:09:19.066Z,100440.34
2022-10-01T21:11:59.461Z,100434.38
2022-10-01T21:14:36.904Z,100446.38
2022-10-01T21:17:23.117Z,100459.94
2022-10-01T21:20:14.875Z,100445.47
2022-10-01T21:23:06.278Z,100456.34
2022-10-01T21:25:55.029Z,100477.72
2022-10-01T21:28:48.384Z,100464.88
2022-10-01T21:31:35.433Z,100483.66
2022-10-01T21:34:12.583Z,100492.97
2022-10-01T21:36:56.871Z,100487.50
2022-10-01T21:39:33.847Z,100502.22
2022-10-01T21:42:16.367Z,100496.91
2022-10-01T21:45:20.767Z,100490.41
2022-10-01T21:48:06.944Z,100505.25
2022-10-01T21:50:52.927Z,100500.50
2022-10-01T21:53:49.998Z,100494.75
2022-10-01T21:56:38.780Z,100529.53
2022-10-01T21:59:23.454Z,100519.09
2022-10-01T22:02:06.673Z,100534.25
2022-10-01T22:04:48.386Z,100544.69
2022-10-01T22:07:28.056Z,100534.44
2022-10-01T22:10:09.033Z,100540.25
2022-10-01T22:12:43.767Z,100549.16
2022-10-01T22:15:24.840Z,100551.50
2022-10-01T22:17:55.945Z,100561.75
2022-10-01T22:20:30.146Z,100557.44
2022-10-01T22:23:02.323Z,100570.66
2022-10-01T22:25:35.778Z,100577.53
2022-10-01T22:28:18.525Z,100575.69
2022-10-01T22:30:50.730Z,100572.22
2022-10-01T22:33:25.568Z,100587.56
2022-10-01T22:36:02.952Z,100586.94
2022-10-01T22:38:39.878Z,100603.66
2022-10-01T22:41:16.955Z,100612.19
2022-10-01T22:43:46.557Z,100612.53
2022-10-01T22:46:57.003Z,100619.06
2022-10-01T22:49:41.139Z,100595.56
2022-10-01T22:52:27.083Z,100617.22
2022-10-01T22:55:11.400Z,100626.53
2022-10-01T22:58:01.742Z,100637.94
2022-10-01T23:00:40.453Z,100623.06
2022-10-01T23:03:26.000Z,100622.09
2022-10-01T23:06:07.200Z,100630.97
2022-10-01T23:08:51.869Z,100642.06
2022-10-01T23:11:28.819Z,100643.59
2022-10-01T23:14:12.503Z,100645.78
2022-10-01T23:16:53.643Z,100629.94
2022-10-01T23:19:43.372Z,100657.28
2022-10-01T23:22:33.240Z,100648.47
2022-10-01T23:25:19.302Z,100659.97
2022-10-01T23:28:08.312Z,100650.38
2022-10-01T23:30:57.837Z,100667.53
2022-10-01T23:33:55.164Z,100673.13
2022-10-01T23:36:42.303Z,100675.81
2022-10-01T23:39:41.663Z,100679.09
2022-10-01T23:42:27.026Z,100677.81
2022-10-01T23:45:07.348Z,100686.06
2022-10-01T23:47:43.460Z,100673.25
2022-10-01T23:50:23.814Z,100690.34
2022-10-01T23:53:04.385Z,100695.47
2022-10-01T23:56:03.384Z,100682.00
2022-10-01T23:58:44.461Z,100697.53
